Time;durP1;ratioP1;P1;durP2;ratioP2;P2;SDS_P1;SDS_P2;PMS_P1;PMS_P2;Temp;Humidity;BMP_temperature;BMP_pressure;BME280_temperature;BME280_humidity;BME280_pressure;Samples;Min_cycle;Max_cycle;Signal;HPM_P1;HPM_P2
2021/10/12 00:00:49;;;;;;;5.30;1.75;;;11.10;62.70;;;;;;5045797;28;20024;-66
2021/10/12 00:03:14;;;;;;;6.15;1.90;;;11.10;63.00;;;;;;5039823;28;20091;-66
2021/10/12 00:05:40;;;;;;;5.55;1.65;;;11.10;62.80;;;;;;5038565;28;20071;-66
2021/10/12 00:08:07;;;;;;;5.13;1.58;;;11.00;62.60;;;;;;5034199;28;20112;-66
2021/10/12 00:10:33;;;;;;;5.35;1.60;;;11.00;62.60;;;;;;5052265;28;20112;-66
2021/10/12 00:12:58;;;;;;;6.50;1.65;;;10.90;62.50;;;;;;5042056;28;20113;-66
2021/10/12 00:15:24;;;;;;;7.25;2.40;;;10.90;62.60;;;;;;5041492;28;20120;-66
2021/10/12 00:17:50;;;;;;;4.88;1.80;;;10.90;63.10;;;;;;5050130;28;20029;-66
2021/10/12 00:20:16;;;;;;;7.07;1.70;;;10.90;63.50;;;;;;5049492;28;20031;-66
2021/10/12 00:22:42;;;;;;;5.70;1.60;;;10.90;63.90;;;;;;5044470;28;20041;-66
2021/10/12 00:25:08;;;;;;;4.72;1.70;;;10.80;63.90;;;;;;5040482;28;20042;-66
2021/10/12 00:27:33;;;;;;;4.75;1.90;;;10.80;63.80;;;;;;5050091;28;20046;-66
2021/10/12 00:29:59;;;;;;;3.53;1.60;;;10.80;63.80;;;;;;5048331;28;20044;-66
2021/10/12 00:32:25;;;;;;;3.83;1.58;;;10.80;63.80;;;;;;5033934;28;20514;-66
2021/10/12 00:34:51;;;;;;;5.47;1.50;;;10.70;63.50;;;;;;5035546;28;20106;-66
2021/10/12 00:37:17;;;;;;;5.00;1.58;;;10.70;63.40;;;;;;5040081;28;20033;-66
2021/10/12 00:39:43;;;;;;;4.10;1.60;;;10.60;63.60;;;;;;5036999;28;20116;-66
2021/10/12 00:42:09;;;;;;;6.47;1.80;;;10.60;63.60;;;;;;5040719;28;20036;-66
2021/10/12 00:44:35;;;;;;;4.05;1.85;;;10.60;63.60;;;;;;5037832;28;20032;-66
2021/10/12 00:47:02;;;;;;;5.35;1.77;;;10.50;64.00;;;;;;5037627;28;20044;-66
2021/10/12 00:49:28;;;;;;;6.03;1.67;;;10.50;64.00;;;;;;5042924;28;20384;-66
2021/10/12 00:51:53;;;;;;;4.65;1.60;;;10.50;63.80;;;;;;5039047;28;20025;-66
2021/10/12 00:54:19;;;;;;;8.60;1.67;;;10.40;63.60;;;;;;5038980;28;20044;-66
2021/10/12 00:56:46;;;;;;;5.68;1.67;;;10.40;63.50;;;;;;5035692;28;20017;-66
2021/10/12 00:59:12;;;;;;;3.35;1.45;;;10.30;63.40;;;;;;5034126;28;20033;-66
2021/10/12 01:01:38;;;;;;;5.82;1.67;;;10.30;63.40;;;;;;5039316;28;20392;-66
2021/10/12 01:04:10;;;;;;;4.10;1.65;;;10.30;63.40;;;;;;5045874;28;20037;-66
2021/10/12 01:06:36;;;;;;;5.15;1.42;;;10.20;63.40;;;;;;5045873;28;20020;-66
2021/10/12 01:09:03;;;;;;;6.85;1.67;;;10.20;63.60;;;;;;5037862;28;20036;-66
2021/10/12 01:11:30;;;;;;;5.60;1.77;;;10.20;63.40;;;;;;5040747;28;20033;-66
2021/10/12 01:13:57;;;;;;;4.05;1.63;;;10.20;63.40;;;;;;5034646;28;20152;-66
2021/10/12 01:16:23;;;;;;;4.78;1.70;;;10.10;63.30;;;;;;5045974;28;20033;-66
2021/10/12 01:19:03;;;;;;;5.50;1.60;;;10.10;63.30;;;;;;5037822;28;20044;-66
2021/10/12 01:21:37;;;;;;;8.73;2.00;;;10.10;63.60;;;;;;5038194;28;20033;-66
2021/10/12 01:24:03;;;;;;;5.78;1.98;;;10.00;63.90;;;;;;5039534;28;20037;-66
2021/10/12 01:26:29;;;;;;;4.18;1.88;;;10.00;64.10;;;;;;5042762;28;20025;-66
2021/10/12 01:28:55;;;;;;;5.65;1.83;;;10.00;64.10;;;;;;5049069;28;20025;-66
2021/10/12 01:31:26;;;;;;;6.00;2.20;;;10.00;64.20;;;;;;5041739;28;20052;-66
2021/10/12 01:33:53;;;;;;;5.93;1.77;;;10.00;64.50;;;;;;5041515;28;20496;-66
2021/10/12 01:36:19;;;;;;;4.00;1.55;;;10.00;64.70;;;;;;5040275;28;20022;-66
2021/10/12 01:38:46;;;;;;;5.95;1.70;;;10.00;64.50;;;;;;5047736;28;20021;-66
2021/10/12 01:41:12;;;;;;;4.53;1.77;;;9.90;64.50;;;;;;5034084;28;20048;-66
2021/10/12 01:43:38;;;;;;;5.22;1.70;;;9.90;64.10;;;;;;5048058;28;20049;-66
2021/10/12 01:46:05;;;;;;;6.60;1.50;;;9.80;64.00;;;;;;5047472;28;20083;-66
2021/10/12 01:48:32;;;;;;;5.70;1.70;;;9.80;64.00;;;;;;5043725;28;20024;-66
2021/10/12 01:50:58;;;;;;;7.75;1.70;;;9.80;64.00;;;;;;5048881;28;20021;-66
2021/10/12 01:53:24;;;;;;;4.80;1.63;;;9.80;64.10;;;;;;5033889;28;20032;-66
2021/10/12 01:55:50;;;;;;;4.07;1.60;;;9.80;64.30;;;;;;5039657;28;20033;-66
2021/10/12 01:58:15;;;;;;;7.25;1.73;;;9.70;64.10;;;;;;5048278;28;20060;-66
2021/10/12 02:00:42;;;;;;;6.68;1.70;;;9.70;63.90;;;;;;5041876;28;20636;-66
2021/10/12 02:03:08;;;;;;;6.10;1.70;;;9.60;63.80;;;;;;5047444;28;20385;-66
2021/10/12 02:05:33;;;;;;;4.85;1.60;;;9.60;63.70;;;;;;5044289;28;20471;-66
2021/10/12 02:07:59;;;;;;;4.22;1.55;;;9.60;63.70;;;;;;5034070;28;20021;-66
2021/10/12 02:10:25;;;;;;;4.10;1.60;;;9.60;63.70;;;;;;5046485;28;20104;-66
2021/10/12 02:12:51;;;;;;;5.03;1.65;;;9.50;63.70;;;;;;5040418;28;20088;-66
2021/10/12 02:15:17;;;;;;;5.22;1.60;;;9.50;63.80;;;;;;5036639;28;20021;-66
2021/10/12 02:17:43;;;;;;;6.90;1.65;;;9.50;64.10;;;;;;5048169;28;20029;-66
2021/10/12 02:20:10;;;;;;;5.00;1.80;;;9.50;64.50;;;;;;5048504;28;20049;-66
2021/10/12 02:22:37;;;;;;;5.55;1.90;;;9.50;64.50;;;;;;5037263;28;20568;-66
2021/10/12 02:25:05;;;;;;;5.05;1.80;;;9.50;64.50;;;;;;5047487;28;20029;-66
2021/10/12 02:27:31;;;;;;;4.18;1.80;;;9.50;64.50;;;;;;5041101;28;20025;-66
2021/10/12 02:29:57;;;;;;;4.45;1.70;;;9.40;64.50;;;;;;5036509;28;20369;-66
2021/10/12 02:32:23;;;;;;;4.18;1.80;;;9.40;64.60;;;;;;5042476;28;20032;-66
2021/10/12 02:34:49;;;;;;;4.88;1.50;;;9.40;64.60;;;;;;5053952;28;20043;-66
2021/10/12 02:37:15;;;;;;;4.55;1.77;;;9.40;64.60;;;;;;5041370;28;20025;-66
2021/10/12 02:39:40;;;;;;;3.88;1.67;;;9.40;64.50;;;;;;5043290;28;20057;-66
2021/10/12 02:42:07;;;;;;;5.88;1.52;;;9.30;64.70;;;;;;5029655;28;20025;-66
2021/10/12 02:44:32;;;;;;;5.07;1.52;;;9.30;64.90;;;;;;5048814;28;20499;-66
2021/10/12 02:46:58;;;;;;;3.67;1.55;;;9.30;65.00;;;;;;5036684;28;20080;-66
2021/10/12 02:49:24;;;;;;;6.85;2.28;;;9.20;65.00;;;;;;5041391;28;20415;-66
2021/10/12 02:51:50;;;;;;;11.75;2.50;;;9.20;65.30;;;;;;5041546;28;20032;-66
2021/10/12 02:54:16;;;;;;;8.10;2.30;;;9.20;65.90;;;;;;5040999;28;20071;-66
2021/10/12 02:56:42;;;;;;;6.60;2.20;;;9.20;66.30;;;;;;5039131;28;20033;-66
2021/10/12 02:59:07;;;;;;;8.48;2.30;;;9.20;66.40;;;;;;5041048;28;20075;-66
2021/10/12 03:01:33;;;;;;;8.20;2.22;;;9.20;66.20;;;;;;5049682;28;20454;-66
2021/10/12 03:03:59;;;;;;;6.10;1.80;;;9.20;66.00;;;;;;5052380;28;20037;-65
2021/10/12 03:06:25;;;;;;;5.68;2.00;;;9.20;65.90;;;;;;5050676;28;20090;-66
2021/10/12 03:08:51;;;;;;;5.22;1.92;;;9.20;65.70;;;;;;5037890;28;20024;-66
2021/10/12 03:11:17;;;;;;;6.63;2.03;;;9.20;65.50;;;;;;5051360;28;20059;-66
2021/10/12 03:13:43;;;;;;;5.22;2.00;;;9.10;65.30;;;;;;5046529;28;20039;-66
2021/10/12 03:16:09;;;;;;;4.72;2.20;;;9.20;65.30;;;;;;5046256;28;20107;-66
2021/10/12 03:18:36;;;;;;;9.55;2.20;;;9.20;65.30;;;;;;5046033;28;20028;-65
2021/10/12 03:21:02;;;;;;;9.10;2.10;;;9.20;65.50;;;;;;5040085;28;20026;-65
2021/10/12 03:23:28;;;;;;;12.10;2.70;;;9.20;65.80;;;;;;5050973;28;20396;-66
2021/10/12 03:25:55;;;;;;;11.75;2.58;;;9.30;66.00;;;;;;5036441;28;20037;-66
2021/10/12 03:28:21;;;;;;;17.50;2.53;;;9.30;66.00;;;;;;5049071;28;20503;-66
2021/10/12 03:30:47;;;;;;;55.03;2.95;;;9.30;66.10;;;;;;5042889;28;20041;-66
2021/10/12 03:33:14;;;;;;;17.63;2.70;;;9.40;66.40;;;;;;5046726;28;20064;-66
2021/10/12 03:35:46;;;;;;;34.65;2.85;;;9.40;66.70;;;;;;5042043;28;20021;-66
2021/10/12 03:38:12;;;;;;;36.72;2.67;;;9.40;66.90;;;;;;5041637;28;20025;-66
2021/10/12 03:40:38;;;;;;;57.72;3.33;;;9.50;67.10;;;;;;5052448;28;20089;-66
2021/10/12 03:43:04;;;;;;;35.58;2.78;;;9.50;67.50;;;;;;5049374;28;20427;-66
2021/10/12 03:45:30;;;;;;;55.13;3.30;;;9.50;68.00;;;;;;5042238;28;20037;-66
2021/10/12 03:47:55;;;;;;;48.88;3.22;;;9.50;68.00;;;;;;5043550;28;20030;-66
2021/10/12 03:50:21;;;;;;;64.88;3.33;;;9.60;68.10;;;;;;5050387;28;20032;-66
2021/10/12 03:52:47;;;;;;;74.50;3.50;;;9.60;68.20;;;;;;5037238;28;20039;-66
2021/10/12 03:55:13;;;;;;;83.47;3.50;;;9.60;68.10;;;;;;5040369;28;20030;-66
2021/10/12 03:57:38;;;;;;;55.45;2.78;;;9.50;68.10;;;;;;5045592;28;20403;-66
2021/10/12 04:00:06;;;;;;;35.28;2.55;;;9.50;68.20;;;;;;5047198;28;20438;-66
2021/10/12 04:02:32;;;;;;;28.52;2.22;;;9.40;68.10;;;;;;5040268;28;20067;-66
2021/10/12 04:04:58;;;;;;;25.45;2.40;;;9.40;68.20;;;;;;5035247;28;20065;-66
2021/10/12 04:07:23;;;;;;;19.73;2.50;;;9.40;68.30;;;;;;5040218;28;20463;-66
2021/10/12 04:09:49;;;;;;;42.25;3.53;;;9.40;68.30;;;;;;5044972;28;20102;-66
2021/10/12 04:12:15;;;;;;;22.17;2.45;;;9.40;68.30;;;;;;5050428;28;20056;-66
2021/10/12 04:14:41;;;;;;;27.85;2.35;;;9.30;68.20;;;;;;5042845;28;20040;-66
2021/10/12 04:17:07;;;;;;;34.22;2.70;;;9.30;68.30;;;;;;5035501;28;20480;-66
2021/10/12 04:19:32;;;;;;;35.53;2.63;;;9.30;68.40;;;;;;5048483;28;20090;-66
2021/10/12 04:21:58;;;;;;;26.65;2.40;;;9.30;68.40;;;;;;5047119;28;20080;-66
2021/10/12 04:24:25;;;;;;;40.42;2.53;;;9.30;68.50;;;;;;5045179;28;20111;-66
2021/10/12 04:26:50;;;;;;;23.08;2.20;;;9.30;68.60;;;;;;5045471;28;20102;-65
2021/10/12 04:29:16;;;;;;;56.67;2.97;;;9.20;68.60;;;;;;5036768;28;20785;-66
2021/10/12 04:31:42;;;;;;;50.53;2.40;;;9.20;68.70;;;;;;5047905;28;20045;-66
2021/10/12 04:34:08;;;;;;;48.00;2.75;;;9.20;68.70;;;;;;5046803;28;20021;-66
2021/10/12 04:36:34;;;;;;;59.83;3.03;;;9.20;68.60;;;;;;5044621;28;20032;-66
2021/10/12 04:39:00;;;;;;;106.32;3.65;;;9.20;68.70;;;;;;5049526;28;20021;-65
2021/10/12 04:41:26;;;;;;;50.22;3.00;;;9.20;69.00;;;;;;5049754;28;20021;-64
2021/10/12 04:43:52;;;;;;;51.58;2.78;;;9.20;69.20;;;;;;5050255;28;20384;-67
2021/10/12 04:46:18;;;;;;;45.60;2.58;;;9.20;69.50;;;;;;5048010;28;20115;-66
2021/10/12 04:48:44;;;;;;;30.35;2.55;;;9.20;69.70;;;;;;5048816;28;20017;-67
2021/10/12 04:51:09;;;;;;;45.33;2.78;;;9.10;69.50;;;;;;5050779;28;20025;-66
2021/10/12 04:53:35;;;;;;;37.03;2.55;;;9.10;69.60;;;;;;5049759;28;20749;-66
2021/10/12 04:56:01;;;;;;;38.05;2.60;;;9.10;69.60;;;;;;5045908;28;20040;-65
2021/10/12 04:58:27;;;;;;;24.75;2.60;;;9.10;69.70;;;;;;5045932;28;20071;-66
2021/10/12 05:00:53;;;;;;;25.20;2.35;;;9.10;69.60;;;;;;5043799;28;20029;-67
2021/10/12 05:03:18;;;;;;;14.60;2.38;;;9.10;69.60;;;;;;5046661;28;20029;-66
2021/10/12 05:05:44;;;;;;;16.15;2.13;;;9.10;69.60;;;;;;5046189;28;20032;-66
2021/10/12 05:08:10;;;;;;;16.85;2.53;;;9.10;69.80;;;;;;5045368;28;21024;-65
2021/10/12 05:10:36;;;;;;;18.13;2.10;;;9.10;69.90;;;;;;5046588;28;20029;-65
2021/10/12 05:13:02;;;;;;;34.33;2.47;;;9.10;69.90;;;;;;5050344;28;20100;-66
2021/10/12 05:15:29;;;;;;;18.73;2.28;;;9.10;69.90;;;;;;5045094;28;20545;-66
2021/10/12 05:17:56;;;;;;;29.85;2.67;;;9.00;70.10;;;;;;5045165;28;20111;-66
2021/10/12 05:20:22;;;;;;;24.15;2.83;;;9.00;70.20;;;;;;5047561;28;20064;-66
2021/10/12 05:22:48;;;;;;;33.20;2.35;;;9.00;70.20;;;;;;5035852;28;20065;-66
2021/10/12 05:25:15;;;;;;;28.13;2.72;;;9.00;70.20;;;;;;5030020;28;20496;-66
2021/10/12 05:27:41;;;;;;;33.00;2.55;;;8.90;70.10;;;;;;5042220;28;20052;-66
2021/10/12 05:30:10;;;;;;;19.75;2.72;;;8.90;70.10;;;;;;5041336;28;20037;-65
2021/10/12 05:32:38;;;;;;;20.52;2.50;;;8.90;70.30;;;;;;5045804;28;20033;-64
2021/10/12 05:35:05;;;;;;;21.05;2.45;;;8.80;70.30;;;;;;5034173;28;20021;-65
2021/10/12 05:37:31;;;;;;;10.20;2.33;;;8.90;70.30;;;;;;5043126;28;20039;-64
2021/10/12 05:39:57;;;;;;;21.55;2.47;;;8.80;70.10;;;;;;5047671;28;20479;-64
2021/10/12 05:42:23;;;;;;;28.65;2.72;;;8.80;70.00;;;;;;5046538;28;20043;-64
2021/10/12 05:44:48;;;;;;;11.60;2.13;;;8.80;69.90;;;;;;5039915;28;20035;-64
2021/10/12 05:47:14;;;;;;;24.40;2.47;;;8.80;70.00;;;;;;5015862;28;20021;-64
2021/10/12 05:49:41;;;;;;;37.20;2.72;;;8.80;70.00;;;;;;5018164;28;20037;-64
2021/10/12 05:52:09;;;;;;;24.75;2.35;;;8.80;70.00;;;;;;5045119;28;20037;-64
2021/10/12 05:54:39;;;;;;;17.10;2.78;;;8.80;70.00;;;;;;5043540;28;20060;-64
2021/10/12 05:57:05;;;;;;;23.73;2.80;;;8.80;70.10;;;;;;5040580;28;20048;-64
2021/10/12 05:59:32;;;;;;;33.30;2.90;;;8.80;70.20;;;;;;5048992;28;20041;-64
2021/10/12 06:01:58;;;;;;;28.13;2.70;;;8.80;70.40;;;;;;5035574;28;20023;-64
2021/10/12 06:04:24;;;;;;;30.17;2.90;;;8.80;70.50;;;;;;5049726;28;20120;-64
2021/10/12 06:06:51;;;;;;;14.45;2.90;;;8.70;70.40;;;;;;5048812;28;20100;-63
2021/10/12 06:09:17;;;;;;;5.75;2.38;;;8.70;70.30;;;;;;5042489;28;20052;-64
2021/10/12 06:11:42;;;;;;;12.35;2.60;;;8.70;70.30;;;;;;5048987;28;20033;-64
2021/10/12 06:14:08;;;;;;;6.85;1.83;;;8.70;70.40;;;;;;5049322;28;20090;-65
2021/10/12 06:16:34;;;;;;;9.27;2.38;;;8.60;70.20;;;;;;5043139;28;20032;-65
2021/10/12 06:19:00;;;;;;;3.70;1.90;;;8.60;70.20;;;;;;5046700;28;20044;-65
2021/10/12 06:21:26;;;;;;;4.32;2.20;;;8.50;70.30;;;;;;5049000;28;20029;-65
2021/10/12 06:23:52;;;;;;;10.18;1.80;;;8.50;70.30;;;;;;5049168;28;20509;-65
2021/10/12 06:26:18;;;;;;;4.43;1.90;;;8.50;70.40;;;;;;5032273;28;20108;-65
2021/10/12 06:28:44;;;;;;;5.97;1.75;;;8.40;70.40;;;;;;5046452;28;20030;-65
2021/10/12 06:31:10;;;;;;;5.13;1.90;;;8.40;70.50;;;;;;5042886;28;20420;-65
2021/10/12 06:33:36;;;;;;;7.82;2.10;;;8.40;70.50;;;;;;5047892;28;20033;-65
2021/10/12 06:36:01;;;;;;;17.95;2.30;;;8.40;70.60;;;;;;5047483;28;20029;-65
2021/10/12 06:38:27;;;;;;;23.05;2.40;;;8.50;70.70;;;;;;5045206;28;20028;-65
2021/10/12 06:40:53;;;;;;;21.40;2.28;;;8.60;70.60;;;;;;5054091;28;20120;-65
2021/10/12 06:43:19;;;;;;;13.02;2.20;;;8.60;70.30;;;;;;5046521;28;20089;-65
2021/10/12 06:45:44;;;;;;;8.80;2.05;;;8.70;70.00;;;;;;5047710;28;20028;-65
2021/10/12 06:48:11;;;;;;;11.43;2.50;;;8.70;69.80;;;;;;5046891;28;20086;-64
2021/10/12 06:50:37;;;;;;;7.57;1.92;;;8.80;69.60;;;;;;5048501;28;20531;-65
2021/10/12 06:53:04;;;;;;;8.43;2.35;;;8.90;69.50;;;;;;5048978;28;20032;-65
2021/10/12 06:55:30;;;;;;;4.22;2.10;;;9.10;69.40;;;;;;5044795;28;20041;-65
2021/10/12 06:57:55;;;;;;;6.03;2.13;;;9.60;68.80;;;;;;5048347;28;20059;-65
2021/10/12 07:00:21;;;;;;;5.35;2.10;;;10.00;67.90;;;;;;5047692;28;20072;-65
2021/10/12 07:02:47;;;;;;;7.68;2.00;;;10.40;66.80;;;;;;5036454;28;20500;-65
2021/10/12 07:05:15;;;;;;;6.38;2.10;;;10.80;65.60;;;;;;5049152;28;20104;-65
2021/10/12 07:07:41;;;;;;;5.18;2.42;;;11.10;64.70;;;;;;5038651;28;20112;-65
2021/10/12 07:10:09;;;;;;;5.70;2.60;;;11.60;63.70;;;;;;5046375;28;20144;-66
2021/10/12 07:12:35;;;;;;;4.72;2.40;;;12.00;62.80;;;;;;5047234;28;20403;-65
2021/10/12 07:15:02;;;;;;;4.82;2.60;;;12.40;61.60;;;;;;5048097;28;20021;-65
2021/10/12 07:17:27;;;;;;;6.15;2.60;;;12.80;60.40;;;;;;5047460;28;20037;-65
2021/10/12 07:19:53;;;;;;;4.20;2.42;;;13.10;59.50;;;;;;5049259;28;20029;-65
2021/10/12 07:22:22;;;;;;;5.20;2.47;;;13.50;58.70;;;;;;5048714;28;20020;-66
2021/10/12 07:24:49;;;;;;;3.97;2.10;;;13.80;57.80;;;;;;5052021;28;20029;-65
2021/10/12 07:27:15;;;;;;;3.67;1.83;;;14.20;56.90;;;;;;5050730;28;20029;-66
2021/10/12 07:29:41;;;;;;;3.80;2.13;;;14.70;56.00;;;;;;5049740;28;20028;-66
2021/10/12 07:32:07;;;;;;;4.95;2.03;;;15.20;54.70;;;;;;5049455;28;20090;-65
2021/10/12 07:34:33;;;;;;;5.57;2.22;;;15.80;53.50;;;;;;5037644;28;20459;-66
2021/10/12 07:36:59;;;;;;;4.50;2.05;;;16.20;52.40;;;;;;5051127;28;20028;-66
2021/10/12 07:39:25;;;;;;;4.32;2.40;;;16.70;51.20;;;;;;5046750;28;20029;-66
2021/10/12 07:41:50;;;;;;;5.68;2.42;;;17.20;50.40;;;;;;5044494;28;20048;-66
2021/10/12 07:44:16;;;;;;;4.55;2.25;;;17.70;49.50;;;;;;5048983;28;20407;-67
2021/10/12 07:46:46;;;;;;;4.57;2.20;;;18.10;48.60;;;;;;5052496;28;20399;-67
2021/10/12 07:49:11;;;;;;;4.10;2.65;;;18.60;47.60;;;;;;5040468;28;20040;-67
2021/10/12 07:51:37;;;;;;;4.35;2.20;;;18.90;47.10;;;;;;5047692;28;20029;-65
2021/10/12 07:54:08;;;;;;;6.05;2.30;;;19.20;46.20;;;;;;5049701;28;20013;-65
2021/10/12 07:56:36;;;;;;;;;;;19.70;45.60;;;;;;5050362;28;20426;-65
2021/10/12 07:59:07;;;;;;;4.28;2.30;;;20.00;45.00;;;;;;5050965;28;20003;-65
2021/10/12 08:01:33;;;;;;;;;;;20.50;45.20;;;;;;5049567;28;20115;-65
2021/10/12 08:04:00;;;;;;;5.30;2.42;;;21.00;43.40;;;;;;5048604;28;19921;-65
2021/10/12 08:06:26;;;;;;;7.90;2.30;;;21.10;42.60;;;;;;5045770;28;20034;-65
2021/10/12 08:08:52;;;;;;;6.03;2.40;;;21.10;42.60;;;;;;5048286;28;20103;-65
2021/10/12 08:11:22;;;;;;;5.78;2.40;;;21.20;42.40;;;;;;5047583;28;20086;-65
2021/10/12 08:13:51;;;;;;;6.85;2.67;;;21.30;42.20;;;;;;5039428;28;20109;-65
2021/10/12 08:16:20;;;;;;;5.20;2.40;;;21.30;42.50;;;;;;5042535;28;20033;-65
2021/10/12 08:18:46;;;;;;;8.20;2.45;;;21.70;41.80;;;;;;5043998;28;20033;-65
2021/10/12 08:21:12;;;;;;;4.75;2.28;;;21.50;41.70;;;;;;5048655;28;20052;-65
2021/10/12 08:23:38;;;;;;;7.35;2.58;;;21.30;42.20;;;;;;5050540;28;20047;-65
2021/10/12 08:26:04;;;;;;;5.90;2.40;;;20.80;43.30;;;;;;5034614;28;20387;-65
2021/10/12 08:28:30;;;;;;;9.48;2.58;;;20.80;43.50;;;;;;5046984;28;20033;-65
2021/10/12 08:30:55;;;;;;;5.53;2.40;;;20.00;44.50;;;;;;5041295;28;20047;-65
2021/10/12 08:33:21;;;;;;;12.82;2.92;;;19.40;46.00;;;;;;5048758;28;20120;-64
2021/10/12 08:35:47;;;;;;;6.70;2.40;;;19.00;47.20;;;;;;5036704;28;20017;-65
2021/10/12 08:38:18;;;;;;;5.38;2.28;;;18.60;48.10;;;;;;5050428;28;20037;-65
2021/10/12 08:40:45;;;;;;;9.60;2.58;;;18.40;48.90;;;;;;5047253;28;20130;-65
2021/10/12 08:43:10;;;;;;;6.10;2.40;;;18.30;49.50;;;;;;5029847;28;20404;-65
2021/10/12 08:45:39;;;;;;;6.45;2.35;;;18.20;49.90;;;;;;5048041;28;20025;-65
2021/10/12 08:48:06;;;;;;;6.72;2.33;;;18.00;50.50;;;;;;5049220;28;20033;-65
2021/10/12 08:50:33;;;;;;;7.63;2.60;;;17.80;51.40;;;;;;5048439;28;20037;-65
2021/10/12 08:52:59;;;;;;;6.22;2.45;;;17.50;52.50;;;;;;5050462;28;20044;-65
2021/10/12 08:55:28;;;;;;;11.30;2.70;;;17.40;53.20;;;;;;5050223;28;20397;-65
2021/10/12 08:57:54;;;;;;;9.00;2.88;;;17.30;53.60;;;;;;5049766;28;20520;-67
2021/10/12 09:00:21;;;;;;;7.85;2.65;;;17.30;54.10;;;;;;5046845;28;20468;-65
2021/10/12 09:05:57;;;;;;;8.52;2.83;;;17.50;54.20;;;;;;5046039;28;20148;-66
2021/10/12 09:08:39;;;;;;;6.18;2.80;;;17.60;54.30;;;;;;5043320;28;20028;-66
2021/10/12 09:11:21;;;;;;;8.13;2.42;;;17.70;54.50;;;;;;5048176;28;20098;-66
2021/10/12 09:14:01;;;;;;;7.90;2.70;;;17.80;54.60;;;;;;5051548;28;20056;-66
2021/10/12 09:16:40;;;;;;;8.88;2.67;;;17.90;54.90;;;;;;5050646;28;20067;-66
2021/10/12 09:19:08;;;;;;;8.98;2.90;;;17.90;55.10;;;;;;5038841;28;20558;-66
2021/10/12 09:21:36;;;;;;;9.77;3.00;;;17.90;55.60;;;;;;5043859;28;20029;-66
2021/10/12 09:24:02;;;;;;;9.45;2.80;;;17.90;56.40;;;;;;5049000;28;20041;-67
2021/10/12 09:26:33;;;;;;;8.30;2.60;;;17.90;56.50;;;;;;5049219;28;20033;-66
2021/10/12 09:29:02;;;;;;;6.90;2.60;;;17.80;56.50;;;;;;5044643;28;20044;-66
2021/10/12 09:31:39;;;;;;;8.13;3.15;;;17.80;56.80;;;;;;5050203;28;20120;-66
2021/10/12 09:34:07;;;;;;;8.80;2.60;;;17.70;57.30;;;;;;5049593;28;20029;-66
2021/10/12 09:36:47;;;;;;;10.13;2.70;;;17.50;57.80;;;;;;5049108;28;20028;-66
2021/10/12 09:39:17;;;;;;;9.48;2.83;;;17.40;58.30;;;;;;5048522;28;20086;-66
2021/10/12 09:41:45;;;;;;;7.38;2.80;;;17.40;58.70;;;;;;5047198;28;20065;-66
2021/10/12 09:44:15;;;;;;;9.63;2.90;;;17.30;59.40;;;;;;5048928;28;20041;-66
2021/10/12 09:46:45;;;;;;;9.88;2.88;;;17.20;59.60;;;;;;5043378;28;20491;-66
2021/10/12 09:49:11;;;;;;;;;;;17.20;59.80;;;;;;5041638;28;20033;-66
2021/10/12 09:52:00;;;;;;;10.45;2.90;;;17.20;60.20;;;;;;5048392;28;19915;-66
2021/10/12 09:54:34;;;;;;;11.15;2.90;;;17.30;60.40;;;;;;5049196;28;20031;-66
2021/10/12 09:57:03;;;;;;;12.48;3.38;;;17.50;60.30;;;;;;5048560;28;20369;-66
2021/10/12 09:59:30;;;;;;;13.20;4.35;;;17.40;60.10;;;;;;5042272;28;20025;-66
2021/10/12 10:01:56;;;;;;;20.25;5.65;;;17.30;60.70;;;;;;5033442;28;20040;-66
2021/10/12 10:04:24;;;;;;;23.23;6.15;;;17.50;60.80;;;;;;5049618;28;20036;-66
2021/10/12 10:06:52;;;;;;;12.98;3.80;;;17.60;60.80;;;;;;5049033;28;20405;-66
2021/10/12 10:09:23;;;;;;;9.80;4.00;;;17.80;60.30;;;;;;5042527;28;20460;-66
2021/10/12 10:11:50;;;;;;;9.38;3.78;;;18.10;60.00;;;;;;5037584;28;20029;-66
2021/10/12 10:14:17;;;;;;;11.75;4.25;;;18.50;59.60;;;;;;5049153;28;20032;-66
2021/10/12 10:16:52;;;;;;;13.13;3.95;;;18.90;58.30;;;;;;5035595;28;20644;-66
2021/10/12 10:19:27;;;;;;;11.35;4.07;;;19.50;56.60;;;;;;5038169;28;20026;-66
2021/10/12 10:21:53;;;;;;;13.20;3.95;;;19.90;55.10;;;;;;5045902;28;20040;-66
2021/10/12 10:24:41;;;;;;;12.57;3.97;;;20.40;53.90;;;;;;5045918;28;20047;-66
2021/10/12 10:27:27;;;;;;;12.88;3.72;;;20.50;53.20;;;;;;5037753;28;20025;-66
2021/10/12 10:30:20;;;;;;;9.82;3.67;;;20.40;53.50;;;;;;5036681;28;20029;-66
2021/10/12 10:32:47;;;;;;;11.52;4.00;;;21.40;51.80;;;;;;5047875;28;20502;-67
2021/10/12 10:35:14;;;;;;;13.07;3.95;;;21.80;50.20;;;;;;5032812;28;20120;-66
2021/10/12 10:37:40;;;;;;;12.15;4.03;;;22.60;49.30;;;;;;5043211;28;20013;-67
2021/10/12 10:40:27;;;;;;;13.27;3.90;;;26.60;44.00;;;;;;5038897;28;20036;-67
2021/10/12 10:42:58;;;;;;;10.45;3.42;;;28.20;38.20;;;;;;5039861;28;20041;-67
2021/10/12 10:45:47;;;;;;;11.18;3.70;;;29.40;36.00;;;;;;5037604;28;20033;-67
2021/10/12 10:48:15;;;;;;;10.77;3.57;;;31.80;32.70;;;;;;5037727;28;20037;-67
2021/10/12 10:50:41;;;;;;;8.98;3.10;;;33.20;29.80;;;;;;5035652;28;20032;-68
2021/10/12 10:53:10;;;;;;;12.93;5.47;;;34.70;27.90;;;;;;5052219;28;20025;-67
2021/10/12 10:55:41;;;;;;;10.00;3.15;;;36.20;26.60;;;;;;5040424;28;20507;-67
2021/10/12 10:58:12;;;;;;;9.45;3.03;;;37.60;24.90;;;;;;5041487;28;20029;-68
2021/10/12 11:00:41;;;;;;;8.52;2.10;;;38.60;23.60;;;;;;5046318;28;20021;-68
2021/10/12 11:03:28;;;;;;;10.38;2.65;;;39.30;22.80;;;;;;5050132;28;20036;-68
2021/10/12 11:05:55;;;;;;;7.72;2.47;;;38.40;22.70;;;;;;5030316;28;20163;-68
2021/10/12 11:08:23;;;;;;;9.05;2.60;;;39.40;21.70;;;;;;5036751;28;20017;-68
2021/10/12 11:10:55;;;;;;;10.05;2.35;;;40.30;20.40;;;;;;5049486;28;20527;-68
2021/10/12 11:13:43;;;;;;;8.27;2.55;;;38.50;20.60;;;;;;5040992;28;20556;-68
2021/10/12 11:16:14;;;;;;;10.00;2.50;;;37.60;21.20;;;;;;5040995;28;20554;-68
2021/10/12 11:18:42;;;;;;;9.68;2.60;;;36.50;21.70;;;;;;5041430;28;20029;-68
2021/10/12 11:21:10;;;;;;;8.27;2.60;;;34.60;23.30;;;;;;5040570;28;20036;-68
2021/10/12 11:23:42;;;;;;;10.25;3.00;;;35.80;23.30;;;;;;5043824;28;20097;-68
2021/10/12 11:26:16;;;;;;;10.35;3.08;;;34.60;23.60;;;;;;5035996;28;20057;-68
2021/10/12 11:28:51;;;;;;;10.02;2.90;;;35.50;24.90;;;;;;5050202;28;20033;-68
2021/10/12 11:31:28;;;;;;;10.35;3.00;;;35.40;23.70;;;;;;5052184;28;20045;-68
2021/10/12 11:34:00;;;;;;;10.65;2.80;;;36.00;23.50;;;;;;5039259;28;20087;-65
2021/10/12 11:36:27;;;;;;;10.23;3.22;;;37.30;23.10;;;;;;5031647;28;20475;-65
2021/10/12 11:39:03;;;;;;;10.55;3.25;;;36.70;22.40;;;;;;5050461;28;20033;-65
2021/10/12 11:41:39;;;;;;;12.13;3.15;;;35.90;23.20;;;;;;5048405;28;20037;-65
2021/10/12 11:44:21;;;;;;;10.98;3.70;;;34.20;23.90;;;;;;5051275;28;20032;-65
2021/10/12 11:46:50;;;;;;;10.27;3.53;;;34.30;24.80;;;;;;5037373;28;20108;-65
2021/10/12 11:49:21;;;;;;;11.48;3.28;;;33.30;24.80;;;;;;5050340;28;20033;-65
2021/10/12 11:51:50;;;;;;;11.40;3.13;;;32.80;25.20;;;;;;5044241;28;20472;-65
2021/10/12 11:54:25;;;;;;;11.25;3.33;;;35.00;25.20;;;;;;5040718;28;20028;-65
2021/10/12 11:56:51;;;;;;;9.00;2.42;;;35.50;23.70;;;;;;5040614;28;20029;-65
2021/10/12 11:59:17;;;;;;;8.88;2.70;;;37.40;23.60;;;;;;5052167;28;20036;-66
2021/10/12 12:01:44;;;;;;;7.78;2.17;;;40.00;21.70;;;;;;5038110;28;20056;-66
2021/10/12 12:04:25;;;;;;;9.88;2.42;;;37.00;21.40;;;;;;5052291;28;20036;-65
2021/10/12 12:06:51;;;;;;;8.88;2.50;;;35.10;23.40;;;;;;5055406;28;20499;-65
2021/10/12 12:09:23;;;;;;;8.38;2.30;;;33.10;25.10;;;;;;5054219;28;20039;-65
2021/10/12 12:11:52;;;;;;;9.52;2.35;;;31.70;26.30;;;;;;5053104;28;20098;-65
2021/10/12 12:14:26;;;;;;;9.77;2.60;;;32.10;27.50;;;;;;5049911;28;20049;-65
2021/10/12 12:17:17;;;;;;;7.93;2.10;;;31.90;26.90;;;;;;5053968;28;20037;-65
2021/10/12 12:19:51;;;;;;;8.73;2.42;;;31.20;26.80;;;;;;5058864;28;20024;-65
2021/10/12 12:22:31;;;;;;;11.85;2.78;;;35.00;25.80;;;;;;5055376;28;20021;-66
2021/10/12 12:25:10;;;;;;;;;;;37.40;22.80;;;;;;5057136;28;20033;-66
2021/10/12 12:27:54;;;;;;;8.17;2.37;;;38.30;21.10;;;;;;5048727;28;19999;-66
2021/10/12 12:30:38;;;;;;;8.85;2.30;;;40.00;21.00;;;;;;5058956;28;20045;-66
2021/10/12 12:33:04;;;;;;;8.82;2.25;;;39.70;19.80;;;;;;5053886;28;20066;-66
2021/10/12 12:35:44;;;;;;;7.82;2.17;;;38.00;20.50;;;;;;5055156;28;20033;-66
2021/10/12 12:38:21;;;;;;;8.38;2.20;;;38.30;21.30;;;;;;5046503;28;20033;-66
2021/10/12 12:40:51;;;;;;;10.80;2.10;;;39.70;20.70;;;;;;5052973;28;20395;-66
2021/10/12 12:43:22;;;;;;;8.18;2.42;;;41.20;19.60;;;;;;5051944;28;20120;-66
2021/10/12 12:46:10;;;;;;;7.82;2.20;;;42.50;18.30;;;;;;5051785;28;20025;-66
2021/10/12 12:48:42;;;;;;;8.48;2.40;;;40.60;17.90;;;;;;4968320;28;20113;-66
2021/10/12 12:51:09;;;;;;;6.85;1.98;;;38.70;18.70;;;;;;4972778;28;20506;-65
2021/10/12 12:53:47;;;;;;;7.15;2.03;;;36.20;20.70;;;;;;4970690;28;20047;-67
2021/10/12 12:56:15;;;;;;;10.88;2.20;;;34.00;22.90;;;;;;4963728;28;20039;-67